Time;durP1;ratioP1;P1;durP2;ratioP2;P2;SDS_P1;SDS_P2;PMS_P1;PMS_P2;Temp;Humidity;BMP_temperature;BMP_pressure;BME280_temperature;BME280_humidity;BME280_pressure;Samples;Min_cycle;Max_cycle;Signal;HPM_P1;HPM_P2
2023/09/01 00:00:14;;;;;;;4.00;1.93;;;14.10;99.90;;;;;;2052218;28;20433;-68
2023/09/01 00:01:15;;;;;;;2.87;1.80;;;14.10;99.90;;;;;;2061566;28;20218;-68
2023/09/01 00:02:16;;;;;;;4.43;1.90;;;14.00;99.90;;;;;;2066119;28;22029;-68
2023/09/01 00:03:17;;;;;;;2.83;1.70;;;14.00;99.90;;;;;;2066362;28;20523;-68
2023/09/01 00:04:18;;;;;;;3.93;1.70;;;14.00;99.90;;;;;;2065850;28;20186;-68
2023/09/01 00:05:19;;;;;;;3.77;1.87;;;14.00;99.90;;;;;;2063982;28;20557;-68
2023/09/01 00:06:19;;;;;;;2.90;1.67;;;14.10;99.90;;;;;;2064119;28;20179;-68
2023/09/01 00:07:20;;;;;;;3.17;1.80;;;14.10;99.90;;;;;;2067454;28;20650;-67
2023/09/01 00:08:24;;;;;;;4.67;1.83;;;14.10;99.90;;;;;;2067830;28;20181;-69
2023/09/01 00:09:24;;;;;;;3.13;1.88;;;14.10;99.90;;;;;;2071144;28;20316;-68
2023/09/01 00:10:25;;;;;;;3.73;1.80;;;14.10;99.90;;;;;;2061609;28;20332;-68
2023/09/01 00:11:26;;;;;;;4.80;1.50;;;14.10;99.90;;;;;;2052061;28;20238;-68
2023/09/01 00:12:27;;;;;;;3.87;2.10;;;14.10;99.90;;;;;;2055357;28;20647;-67
2023/09/01 00:13:27;;;;;;;3.13;1.87;;;14.10;99.90;;;;;;2060998;28;20272;-68
2023/09/01 00:14:28;;;;;;;3.80;1.97;;;14.00;99.90;;;;;;2071919;28;20463;-67
2023/09/01 00:15:29;;;;;;;3.87;1.80;;;14.00;99.90;;;;;;2064217;28;20313;-67
2023/09/01 00:16:30;;;;;;;3.60;1.73;;;14.10;99.90;;;;;;2055466;28;20734;-67
2023/09/01 00:17:30;;;;;;;3.37;1.60;;;14.10;99.90;;;;;;2055893;28;20254;-68
2023/09/01 00:18:32;;;;;;;3.23;1.97;;;14.10;99.90;;;;;;2063425;28;20226;-68
2023/09/01 00:19:33;;;;;;;6.30;1.93;;;14.10;99.90;;;;;;2063700;28;20230;-67
2023/09/01 00:20:34;;;;;;;2.97;1.60;;;14.10;99.90;;;;;;2063558;28;20488;-67
2023/09/01 00:21:35;;;;;;;3.58;1.88;;;14.10;99.90;;;;;;2060419;28;20249;-66
2023/09/01 00:22:36;;;;;;;3.30;1.93;;;14.10;99.90;;;;;;2063772;28;20226;-67
2023/09/01 00:23:36;;;;;;;3.63;1.73;;;14.10;99.90;;;;;;2066529;28;20221;-67
2023/09/01 00:24:37;;;;;;;4.63;2.00;;;14.10;99.90;;;;;;2073929;28;20748;-66
2023/09/01 00:25:38;;;;;;;2.97;2.10;;;14.10;99.90;;;;;;2065267;28;20329;-67
2023/09/01 00:26:38;;;;;;;3.60;1.97;;;14.10;99.90;;;;;;2064015;28;20229;-67
2023/09/01 00:27:39;;;;;;;3.43;1.80;;;14.10;99.90;;;;;;2055477;28;20243;-66
2023/09/01 00:28:40;;;;;;;4.70;1.90;;;14.00;99.90;;;;;;2064735;28;20630;-67
2023/09/01 00:29:41;;;;;;;2.87;1.77;;;14.00;99.90;;;;;;2065840;28;20234;-67
2023/09/01 00:30:56;;;;;;;5.37;2.07;;;14.10;99.90;;;;;;2065560;28;20719;-67
2023/09/01 00:31:57;;;;;;;4.25;2.00;;;14.10;99.90;;;;;;2055547;28;20226;-66
2023/09/01 00:32:58;;;;;;;3.17;1.80;;;14.10;99.90;;;;;;2043815;28;20258;-67
2023/09/01 00:33:58;;;;;;;2.97;1.70;;;14.10;99.90;;;;;;2058169;28;20326;-67
2023/09/01 00:35:01;;;;;;;2.10;1.83;;;14.10;99.90;;;;;;2054608;28;20234;-67
2023/09/01 00:36:03;;;;;;;2.00;1.77;;;14.10;99.90;;;;;;2057277;28;20235;-67
2023/09/01 00:37:03;;;;;;;4.07;2.17;;;14.10;99.90;;;;;;2062393;28;20234;-67
2023/09/01 00:38:04;;;;;;;4.03;2.07;;;14.10;99.90;;;;;;2062221;28;20776;-67
2023/09/01 00:39:05;;;;;;;2.30;1.60;;;14.10;99.90;;;;;;2035731;29;20201;-67
2023/09/01 00:40:07;;;;;;;3.43;1.80;;;14.10;99.90;;;;;;2054050;28;20222;-67
2023/09/01 00:41:07;;;;;;;2.33;1.73;;;14.10;99.90;;;;;;2063291;28;20214;-67
2023/09/01 00:42:08;;;;;;;4.40;1.70;;;14.20;99.90;;;;;;2063346;28;20785;-67
2023/09/01 00:43:09;;;;;;;3.47;2.27;;;14.10;99.90;;;;;;2063404;28;20196;-67
2023/09/01 00:44:13;;;;;;;5.33;2.10;;;14.10;99.90;;;;;;2063294;28;20669;-67
2023/09/01 00:45:14;;;;;;;2.63;1.65;;;14.00;99.90;;;;;;2063326;28;20682;-67
2023/09/01 00:46:15;;;;;;;3.97;2.07;;;13.90;99.90;;;;;;2071596;28;20296;-67
2023/09/01 00:47:17;;;;;;;3.97;2.00;;;13.80;99.90;;;;;;2063288;28;20205;-66
2023/09/01 00:48:18;;;;;;;4.03;2.20;;;13.80;99.90;;;;;;2068651;28;20193;-67
2023/09/01 00:49:19;;;;;;;3.43;2.07;;;13.70;99.90;;;;;;2063190;28;20456;-67
2023/09/01 00:50:20;;;;;;;3.87;2.00;;;13.80;99.90;;;;;;2057368;28;20687;-67
2023/09/01 00:51:21;;;;;;;3.58;2.10;;;13.70;99.90;;;;;;2063333;28;20210;-67
2023/09/01 00:52:21;;;;;;;4.07;1.93;;;13.70;99.90;;;;;;2063365;28;20226;-67
2023/09/01 00:53:23;;;;;;;2.80;1.90;;;13.70;99.90;;;;;;2047215;28;20243;-67
2023/09/01 00:54:24;;;;;;;4.60;2.10;;;13.70;99.90;;;;;;2055362;28;20656;-67
2023/09/01 00:55:25;;;;;;;3.13;2.20;;;13.70;99.90;;;;;;2055373;28;20474;-68
2023/09/01 00:56:26;;;;;;;3.17;1.90;;;13.70;99.90;;;;;;2054909;28;20322;-66
2023/09/01 00:57:27;;;;;;;3.70;2.33;;;13.70;99.90;;;;;;2063020;28;20476;-68
2023/09/01 00:58:27;;;;;;;3.53;1.90;;;13.60;99.90;;;;;;2063120;28;20226;-68
2023/09/01 00:59:28;;;;;;;3.67;2.20;;;13.60;99.90;;;;;;2059291;28;20233;-68
2023/09/01 01:00:32;;;;;;;4.03;2.13;;;13.60;99.90;;;;;;2055379;28;20269;-68
2023/09/01 01:01:33;;;;;;;4.90;2.13;;;13.60;99.90;;;;;;2053689;28;20230;-68
2023/09/01 01:02:35;;;;;;;4.80;2.33;;;13.50;99.90;;;;;;2055200;28;20547;-68
2023/09/01 01:03:36;;;;;;;4.10;2.40;;;13.50;99.90;;;;;;2062461;28;20237;-66
2023/09/01 01:04:37;;;;;;;4.38;2.25;;;13.50;99.90;;;;;;2054417;28;20839;-67
2023/09/01 01:05:56;;;;;;;3.00;2.00;;;13.50;99.90;;;;;;2046170;28;20326;-68
2023/09/01 01:07:24;;;;;;;4.53;2.30;;;13.50;99.90;;;;;;2060883;28;20672;-66
2023/09/01 01:08:46;;;;;;;2.38;1.92;;;13.40;99.90;;;;;;2068283;28;20237;-66
2023/09/01 01:10:13;;;;;;;3.97;2.25;;;13.40;99.90;;;;;;2066855;28;20624;-66
2023/09/01 01:11:27;;;;;;;2.65;2.00;;;13.30;99.90;;;;;;2064694;28;20684;-66
2023/09/01 01:12:58;;;;;;;3.67;2.30;;;13.30;99.90;;;;;;2060994;28;20225;-66
2023/09/01 01:14:21;;;;;;;4.53;2.33;;;13.30;99.90;;;;;;2066121;28;20471;-66
2023/09/01 01:15:23;;;;;;;3.83;2.13;;;13.40;99.90;;;;;;2058343;28;20242;-66
2023/09/01 01:16:28;;;;;;;5.03;2.30;;;13.40;99.90;;;;;;2054246;28;20298;-66
2023/09/01 01:17:29;;;;;;;3.30;2.30;;;13.40;99.90;;;;;;2063037;28;20706;-66
2023/09/01 01:18:35;;;;;;;4.30;2.40;;;13.40;99.90;;;;;;2062137;28;20238;-66
2023/09/01 01:19:51;;;;;;;3.90;2.42;;;13.40;99.90;;;;;;2054917;28;20234;-66
2023/09/01 01:21:05;;;;;;;3.05;2.10;;;13.40;99.90;;;;;;2055675;28;20233;-66
2023/09/01 01:22:08;;;;;;;3.08;2.10;;;13.40;99.90;;;;;;2054632;28;20722;-66
2023/09/01 01:23:17;;;;;;;4.75;2.25;;;13.30;99.90;;;;;;2055378;28;20277;-67
2023/09/01 01:24:18;;;;;;;3.55;2.60;;;13.30;99.90;;;;;;2063860;28;20933;-67
2023/09/01 01:25:20;;;;;;;4.17;2.63;;;13.20;99.90;;;;;;2053870;28;20207;-67
2023/09/01 01:26:23;;;;;;;4.70;2.38;;;13.20;99.90;;;;;;2051162;28;20716;-67
2023/09/01 01:27:23;;;;;;;3.63;2.47;;;13.20;99.90;;;;;;2054096;28;20226;-67
2023/09/01 01:28:25;;;;;;;3.47;2.47;;;13.20;99.90;;;;;;2050985;28;20233;-67
2023/09/01 01:29:28;;;;;;;3.95;2.53;;;13.10;99.90;;;;;;2054297;28;20735;-67
2023/09/01 01:30:29;;;;;;;4.90;2.70;;;13.10;99.90;;;;;;2058151;28;20256;-67
2023/09/01 01:31:30;;;;;;;3.97;2.73;;;13.10;99.90;;;;;;2061268;28;20226;-68
2023/09/01 01:32:32;;;;;;;3.70;2.70;;;13.20;99.90;;;;;;2062199;28;20317;-66
2023/09/01 01:34:00;;;;;;;4.35;2.80;;;13.20;99.90;;;;;;2061796;28;20218;-67
2023/09/01 01:35:37;;;;;;;5.65;2.70;;;13.20;99.90;;;;;;2052736;28;20227;-67
2023/09/01 01:37:01;;;;;;;5.00;3.05;;;13.20;99.90;;;;;;2059750;28;20312;-67
2023/09/01 01:38:10;;;;;;;4.07;2.30;;;13.20;99.90;;;;;;2061660;28;20229;-67
2023/09/01 01:39:16;;;;;;;3.10;2.22;;;13.20;99.90;;;;;;2057359;28;20221;-67
2023/09/01 01:40:22;;;;;;;3.55;2.50;;;13.10;99.90;;;;;;2061371;28;20186;-67
2023/09/01 01:41:55;;;;;;;5.85;2.95;;;13.10;99.90;;;;;;2057780;28;20237;-67
2023/09/01 01:43:00;;;;;;;4.25;2.40;;;13.10;99.90;;;;;;2054628;28;20226;-67
2023/09/01 01:44:03;;;;;;;4.78;2.30;;;13.10;99.90;;;;;;2061805;28;20751;-67
2023/09/01 01:45:06;;;;;;;4.10;2.47;;;13.10;99.90;;;;;;2048047;28;20711;-68
2023/09/01 01:46:07;;;;;;;4.72;2.65;;;13.20;99.90;;;;;;2042983;28;20277;-67
2023/09/01 01:47:09;;;;;;;3.17;2.60;;;13.20;99.90;;;;;;2054184;28;20191;-67
2023/09/01 01:48:09;;;;;;;5.60;2.30;;;13.30;99.90;;;;;;2059474;28;20210;-68
2023/09/01 01:49:10;;;;;;;4.93;2.77;;;13.20;99.90;;;;;;2060828;28;20254;-67
2023/09/01 01:50:11;;;;;;;3.03;2.60;;;13.20;99.90;;;;;;2059070;28;20181;-67
2023/09/01 01:51:12;;;;;;;3.23;2.57;;;13.20;99.90;;;;;;2069537;28;20201;-67
2023/09/01 01:52:13;;;;;;;5.07;3.20;;;13.20;99.90;;;;;;2062561;28;20666;-68
2023/09/01 01:53:13;;;;;;;4.03;2.50;;;13.20;99.90;;;;;;2070008;28;20190;-67
2023/09/01 01:54:14;;;;;;;4.13;2.60;;;13.30;99.90;;;;;;2061922;28;20194;-67
2023/09/01 01:55:15;;;;;;;4.47;2.60;;;13.30;99.90;;;;;;2061988;28;20182;-67
2023/09/01 01:56:16;;;;;;;4.00;2.50;;;13.30;99.90;;;;;;2062360;28;20182;-67
2023/09/01 01:57:16;;;;;;;5.30;3.00;;;13.30;99.90;;;;;;2062876;28;20234;-67
2023/09/01 01:58:17;;;;;;;3.80;2.93;;;13.30;99.90;;;;;;2061958;28;20190;-67
2023/09/01 01:59:18;;;;;;;4.00;2.57;;;13.30;99.90;;;;;;2062130;28;20189;-68
2023/09/01 02:00:19;;;;;;;4.03;2.63;;;13.20;99.90;;;;;;2054064;28;20237;-67
2023/09/01 02:01:20;;;;;;;4.97;2.40;;;13.20;99.90;;;;;;2054338;28;20227;-67
2023/09/01 02:02:20;;;;;;;2.47;2.00;;;13.20;99.90;;;;;;2053793;28;20718;-67
2023/09/01 02:03:21;;;;;;;2.50;2.30;;;13.20;99.90;;;;;;2054111;28;20512;-67
2023/09/01 02:04:22;;;;;;;2.77;2.13;;;13.20;99.90;;;;;;2061953;28;20328;-67
2023/09/01 02:05:23;;;;;;;2.80;2.10;;;13.30;99.90;;;;;;2062993;28;20242;-67
2023/09/01 02:06:24;;;;;;;3.20;1.90;;;13.30;99.90;;;;;;2061878;28;20234;-66
2023/09/01 02:07:25;;;;;;;4.68;2.22;;;13.30;99.90;;;;;;2062140;28;20797;-67
2023/09/01 02:08:25;;;;;;;2.40;2.00;;;13.30;99.90;;;;;;2061819;28;20234;-67
2023/09/01 02:09:27;;;;;;;2.00;1.80;;;13.40;99.90;;;;;;2053606;28;20687;-68
2023/09/01 02:10:27;;;;;;;3.17;1.73;;;13.50;99.90;;;;;;2061851;28;20233;-68
2023/09/01 02:11:29;;;;;;;3.93;1.77;;;13.50;99.90;;;;;;2062920;28;20230;-68
2023/09/01 02:12:29;;;;;;;2.60;1.80;;;13.40;99.90;;;;;;2064896;28;20733;-67
2023/09/01 02:13:30;;;;;;;2.00;1.67;;;13.40;99.90;;;;;;2062368;28;20237;-68
2023/09/01 02:14:34;;;;;;;2.42;1.73;;;13.40;99.90;;;;;;2056376;28;20238;-68
2023/09/01 02:15:35;;;;;;;3.83;1.85;;;13.50;99.90;;;;;;2054398;28;20581;-68
2023/09/01 02:16:36;;;;;;;1.73;1.60;;;13.50;99.90;;;;;;2055095;28;20232;-68
2023/09/01 02:17:37;;;;;;;3.23;2.43;;;13.50;99.90;;;;;;2054364;28;20620;-68
2023/09/01 02:18:37;;;;;;;3.78;2.30;;;13.50;99.90;;;;;;2053543;28;20258;-68
2023/09/01 02:19:38;;;;;;;3.07;1.93;;;13.50;99.90;;;;;;2061830;28;20793;-68
2023/09/01 02:20:39;;;;;;;4.53;2.20;;;13.50;99.90;;;;;;2062370;28;20742;-67
2023/09/01 02:21:39;;;;;;;6.23;3.00;;;13.50;99.90;;;;;;2053956;28;20237;-68
2023/09/01 02:22:43;;;;;;;4.87;2.77;;;13.60;99.90;;;;;;2061745;28;20255;-67
2023/09/01 02:23:44;;;;;;;3.95;2.50;;;13.70;99.90;;;;;;2056540;28;20238;-67
2023/09/01 02:24:44;;;;;;;3.53;2.17;;;13.70;99.90;;;;;;2055690;28;20234;-68
2023/09/01 02:25:46;;;;;;;3.40;2.13;;;13.70;99.90;;;;;;2062014;28;20238;-68
2023/09/01 02:26:46;;;;;;;1.98;1.80;;;13.80;99.90;;;;;;2061631;28;20226;-67
2023/09/01 02:27:47;;;;;;;2.17;1.90;;;13.70;99.90;;;;;;2050561;28;20335;-67
2023/09/01 02:28:49;;;;;;;3.60;1.63;;;13.70;99.90;;;;;;2056276;28;20730;-67
2023/09/01 02:29:50;;;;;;;2.10;1.90;;;13.80;99.90;;;;;;2068761;28;20313;-68
2023/09/01 02:30:51;;;;;;;2.78;1.70;;;13.80;99.90;;;;;;2070665;28;20312;-68
2023/09/01 02:31:53;;;;;;;1.53;1.43;;;13.90;99.90;;;;;;2063019;28;20285;-67
2023/09/01 02:32:54;;;;;;;1.85;1.50;;;13.80;99.90;;;;;;2061892;28;20527;-67
2023/09/01 02:33:54;;;;;;;1.87;1.70;;;13.90;99.90;;;;;;2061621;28;20973;-67
2023/09/01 02:34:55;;;;;;;1.80;1.50;;;13.90;99.90;;;;;;2061582;28;20230;-67
2023/09/01 02:36:24;;;;;;;1.70;1.60;;;13.90;99.90;;;;;;2061387;28;20651;-67
2023/09/01 02:37:25;;;;;;;3.97;3.00;;;13.80;99.90;;;;;;2060343;28;20234;-67
2023/09/01 02:38:25;;;;;;;2.30;2.10;;;13.80;99.90;;;;;;2064326;28;20312;-68
2023/09/01 02:39:26;;;;;;;2.13;1.67;;;13.80;99.90;;;;;;2061452;28;20258;-67
2023/09/01 02:40:27;;;;;;;1.73;1.40;;;13.90;99.90;;;;;;2057889;28;20633;-68
2023/09/01 02:41:28;;;;;;;1.60;1.50;;;13.80;99.90;;;;;;2045785;28;20235;-67
2023/09/01 02:42:28;;;;;;;1.98;1.40;;;13.80;99.90;;;;;;2053738;28;20237;-67
2023/09/01 02:43:30;;;;;;;2.33;1.60;;;13.80;99.90;;;;;;2053749;28;20262;-67
2023/09/01 02:44:30;;;;;;;1.98;1.42;;;13.80;99.90;;;;;;2051835;28;20723;-67
2023/09/01 02:45:31;;;;;;;1.87;1.40;;;13.80;99.90;;;;;;2057118;28;20234;-67
2023/09/01 02:46:32;;;;;;;1.70;1.40;;;13.80;99.90;;;;;;2061772;28;20230;-67
2023/09/01 02:47:34;;;;;;;1.43;1.33;;;13.80;99.90;;;;;;2062132;28;20230;-68
2023/09/01 02:48:35;;;;;;;1.27;1.20;;;13.80;99.90;;;;;;2062025;28;20233;-68
2023/09/01 02:49:36;;;;;;;2.53;1.37;;;13.80;99.90;;;;;;2061140;28;20226;-67
2023/09/01 02:50:36;;;;;;;1.47;1.37;;;13.80;99.90;;;;;;2061917;28;20445;-67
2023/09/01 02:51:37;;;;;;;1.23;1.13;;;13.80;99.90;;;;;;2058474;28;20237;-67
2023/09/01 02:52:38;;;;;;;1.30;1.20;;;13.80;99.90;;;;;;2061563;28;20245;-67
2023/09/01 02:53:39;;;;;;;1.27;1.17;;;13.80;99.90;;;;;;2061769;28;20251;-68
2023/09/01 02:54:39;;;;;;;1.80;1.20;;;13.80;99.90;;;;;;2062191;28;20248;-68
2023/09/01 02:55:41;;;;;;;1.38;1.20;;;13.70;99.90;;;;;;2070652;28;20237;-68
2023/09/01 02:56:42;;;;;;;1.50;1.30;;;13.70;99.90;;;;;;2062230;28;20218;-68
2023/09/01 02:57:42;;;;;;;1.47;1.10;;;13.70;99.90;;;;;;2065316;28;20301;-67
2023/09/01 02:58:43;;;;;;;2.50;1.03;;;13.70;99.90;;;;;;2061585;28;20638;-67
2023/09/01 02:59:44;;;;;;;1.40;1.30;;;13.80;99.90;;;;;;2066095;28;20229;-68
2023/09/01 03:00:45;;;;;;;1.83;1.30;;;13.70;99.90;;;;;;2070918;28;20480;-68
2023/09/01 03:01:46;;;;;;;2.17;1.37;;;13.70;99.90;;;;;;2066137;28;20222;-68
2023/09/01 03:02:47;;;;;;;1.60;1.30;;;13.70;99.90;;;;;;2060947;28;20465;-68
2023/09/01 03:03:48;;;;;;;1.60;1.30;;;13.80;99.90;;;;;;2064349;28;20222;-68
2023/09/01 03:04:50;;;;;;;1.52;1.20;;;13.90;99.90;;;;;;2058932;28;20464;-68
2023/09/01 03:05:51;;;;;;;1.38;1.27;;;14.00;99.90;;;;;;2050480;28;20785;-67
2023/09/01 03:06:52;;;;;;;2.28;1.30;;;14.00;99.90;;;;;;2057312;28;20235;-67
2023/09/01 03:07:53;;;;;;;1.80;1.50;;;14.00;99.90;;;;;;2056608;28;20222;-67
2023/09/01 03:08:54;;;;;;;1.52;1.20;;;14.00;99.90;;;;;;2059482;28;20317;-67
2023/09/01 03:09:55;;;;;;;1.77;1.30;;;14.00;99.90;;;;;;2056550;28;20301;-67
2023/09/01 03:10:55;;;;;;;1.70;1.40;;;14.00;99.90;;;;;;2056395;28;20231;-67
2023/09/01 03:11:56;;;;;;;1.70;1.60;;;14.00;99.90;;;;;;2064435;28;20257;-67
2023/09/01 03:12:57;;;;;;;2.80;1.40;;;14.00;99.90;;;;;;2064144;28;20222;-67
2023/09/01 03:13:58;;;;;;;1.50;1.27;;;14.10;99.90;;;;;;2055827;28;20722;-68
2023/09/01 03:14:58;;;;;;;1.30;1.20;;;14.10;99.90;;;;;;2061323;28;20296;-67
2023/09/01 03:15:59;;;;;;;2.07;1.30;;;14.00;99.90;;;;;;2064274;28;20261;-67
2023/09/01 03:17:00;;;;;;;1.87;1.40;;;14.00;99.90;;;;;;2056390;28;20230;-67
2023/09/01 03:18:00;;;;;;;1.97;1.23;;;14.00;99.90;;;;;;2055954;28;20231;-68
2023/09/01 03:19:01;;;;;;;1.37;1.27;;;14.00;99.90;;;;;;2064187;28;20248;-67
2023/09/01 03:20:09;;;;;;;1.67;1.20;;;14.10;99.90;;;;;;2064007;28;20222;-69
2023/09/01 03:21:12;;;;;;;1.30;1.20;;;14.10;99.90;;;;;;2065915;28;20206;-68
2023/09/01 03:22:12;;;;;;;1.70;1.30;;;14.10;99.90;;;;;;2058283;28;20191;-68
2023/09/01 03:23:13;;;;;;;1.50;1.10;;;14.10;99.90;;;;;;2056304;28;20867;-68
2023/09/01 03:24:14;;;;;;;1.30;1.20;;;14.00;99.90;;;;;;2064497;28;20190;-68
2023/09/01 03:25:17;;;;;;;1.13;1.00;;;13.90;99.90;;;;;;2063551;28;20233;-68
2023/09/01 03:26:19;;;;;;;1.20;1.08;;;13.90;99.90;;;;;;2054844;28;20576;-68
2023/09/01 03:27:21;;;;;;;0.98;0.98;;;14.00;99.90;;;;;;2065562;28;20181;-67
2023/09/01 03:28:21;;;;;;;2.22;1.10;;;14.00;99.90;;;;;;2064488;28;20179;-67
2023/09/01 03:29:22;;;;;;;0.93;0.93;;;14.00;99.90;;;;;;2059220;28;20252;-68
2023/09/01 03:30:23;;;;;;;1.30;1.00;;;14.00;99.90;;;;;;2058751;28;21067;-68
2023/09/01 03:31:24;;;;;;;0.87;0.80;;;14.10;99.90;;;;;;2056142;28;20238;-67
2023/09/01 03:32:24;;;;;;;2.07;1.13;;;14.20;99.90;;;;;;2063323;28;20308;-68
2023/09/01 03:33:27;;;;;;;0.93;0.87;;;14.20;99.90;;;;;;2069463;28;20224;-68
2023/09/01 03:34:30;;;;;;;0.80;0.75;;;14.20;99.90;;;;;;2065178;28;20245;-68
2023/09/01 03:35:30;;;;;;;1.10;0.85;;;14.10;99.90;;;;;;2065287;28;20233;-68
2023/09/01 03:36:31;;;;;;;0.90;0.90;;;14.10;99.90;;;;;;2057094;28;20227;-68
2023/09/01 03:37:32;;;;;;;0.90;0.70;;;14.10;99.90;;;;;;2056396;28;20317;-68
2023/09/01 03:38:34;;;;;;;1.17;0.90;;;14.10;99.90;;;;;;2072498;28;20222;-68
2023/09/01 03:39:34;;;;;;;1.10;0.95;;;14.10;99.90;;;;;;2065491;28;20234;-68
2023/09/01 03:40:38;;;;;;;1.07;1.03;;;14.00;99.90;;;;;;2065417;28;20287;-68
2023/09/01 03:41:39;;;;;;;1.08;0.90;;;14.00;99.90;;;;;;2064045;28;20669;-68
2023/09/01 03:42:41;;;;;;;0.90;0.90;;;14.00;99.90;;;;;;2064028;28;20245;-68
2023/09/01 03:43:41;;;;;;;0.93;0.88;;;14.00;99.90;;;;;;2065525;28;20226;-68
2023/09/01 03:44:42;;;;;;;2.03;1.00;;;14.00;99.90;;;;;;2064208;28;20305;-69
2023/09/01 03:45:44;;;;;;;1.23;1.03;;;14.00;99.90;;;;;;2055614;28;20234;-68
2023/09/01 03:46:45;;;;;;;1.10;1.00;;;14.10;99.90;;;;;;2056491;28;20231;-68
2023/09/01 03:47:46;;;;;;;1.10;0.90;;;14.20;99.90;;;;;;2056255;28;20591;-68
2023/09/01 03:48:46;;;;;;;1.25;0.90;;;14.20;99.90;;;;;;2062689;28;20218;-68
2023/09/01 03:49:47;;;;;;;1.23;0.90;;;14.20;99.90;;;;;;2063816;28;20321;-68
2023/09/01 03:51:09;;;;;;;1.07;0.90;;;14.30;99.90;;;;;;2062537;28;20851;-68
2023/09/01 03:52:10;;;;;;;0.80;0.80;;;14.20;99.90;;;;;;2063085;28;20914;-69
2023/09/01 03:53:11;;;;;;;0.90;0.90;;;14.20;99.90;;;;;;2057106;28;20229;-68
2023/09/01 03:54:11;;;;;;;2.00;0.90;;;14.10;99.90;;;;;;2064333;28;20265;-68
2023/09/01 03:55:12;;;;;;;0.87;0.83;;;14.20;99.90;;;;;;2064643;28;20644;-69
2023/09/01 03:56:16;;;;;;;0.90;0.90;;;14.20;99.90;;;;;;2064880;28;20643;-69
2023/09/01 03:57:17;;;;;;;0.70;0.70;;;14.30;99.90;;;;;;2074369;28;20552;-68
2023/09/01 03:58:17;;;;;;;0.97;0.70;;;14.30;99.90;;;;;;2073240;28;20188;-68
2023/09/01 03:59:19;;;;;;;1.33;0.80;;;14.30;99.90;;;;;;2063440;28;20185;-68
2023/09/01 04:00:20;;;;;;;1.10;0.90;;;14.30;99.90;;;;;;2064163;28;20182;-68
2023/09/01 04:01:20;;;;;;;0.85;0.85;;;14.30;99.90;;;;;;2063803;28;20285;-69
2023/09/01 04:02:21;;;;;;;2.83;1.00;;;14.30;99.90;;;;;;2064215;28;20667;-69
2023/09/01 04:03:22;;;;;;;1.63;0.97;;;14.30;99.90;;;;;;2056385;28;20242;-68
2023/09/01 04:04:23;;;;;;;1.27;0.90;;;14.30;99.90;;;;;;2048030;28;20231;-68
2023/09/01 04:05:23;;;;;;;1.00;0.90;;;14.40;99.90;;;;;;2056452;28;20246;-68
2023/09/01 04:06:24;;;;;;;1.50;1.10;;;14.40;99.90;;;;;;2063800;28;20672;-68
2023/09/01 04:07:25;;;;;;;1.53;0.90;;;14.40;99.90;;;;;;2064396;28;20329;-69
2023/09/01 04:08:25;;;;;;;1.40;1.00;;;14.40;99.90;;;;;;2063774;28;20606;-69
2023/09/01 04:09:26;;;;;;;1.20;1.10;;;14.40;99.90;;;;;;2055800;28;20226;-69
2023/09/01 04:10:28;;;;;;;1.10;1.00;;;14.50;99.90;;;;;;2056145;28;20281;-68
2023/09/01 04:11:28;;;;;;;1.23;1.05;;;14.50;99.90;;;;;;2062627;28;20280;-68
2023/09/01 04:12:29;;;;;;;1.13;1.00;;;14.50;99.90;;;;;;2057088;28;20347;-68
2023/09/01 04:13:31;;;;;;;0.83;0.83;;;14.50;99.90;;;;;;2054709;28;20269;-68
2023/09/01 04:14:32;;;;;;;1.27;1.17;;;14.50;99.90;;;;;;2062951;28;20301;-68
2023/09/01 04:15:32;;;;;;;2.53;1.20;;;14.40;99.90;;;;;;2051409;28;20286;-68
2023/09/01 04:16:33;;;;;;;1.47;1.10;;;14.40;99.90;;;;;;2063071;28;20234;-68
2023/09/01 04:17:34;;;;;;;1.13;1.07;;;14.40;99.90;;;;;;2063212;28;20241;-68
2023/09/01 04:18:35;;;;;;;1.40;1.20;;;14.30;99.90;;;;;;2064814;28;20558;-68
2023/09/01 04:19:35;;;;;;;1.67;1.40;;;14.40;99.90;;;;;;2056162;28;20231;-68
2023/09/01 04:20:36;;;;;;;1.37;1.20;;;14.40;99.90;;;;;;2062578;28;20230;-68
2023/09/01 04:21:37;;;;;;;2.03;1.17;;;14.50;99.90;;;;;;2062978;28;20723;-68
2023/09/01 04:22:37;;;;;;;1.20;1.10;;;14.50;99.90;;;;;;2063056;28;20310;-68
2023/09/01 04:23:40;;;;;;;1.60;1.10;;;14.60;99.90;;;;;;2053122;28;20247;-68
2023/09/01 04:24:41;;;;;;;1.42;1.27;;;14.60;99.90;;;;;;2036761;29;20288;-68
2023/09/01 04:25:44;;;;;;;2.00;1.20;;;14.50;99.90;;;;;;2046686;28;20239;-68
2023/09/01 04:26:45;;;;;;;2.08;1.17;;;14.50;99.90;;;;;;2056422;28;20256;-68
2023/09/01 04:27:46;;;;;;;1.40;1.27;;;14.50;99.90;;;;;;2062814;28;20226;-69
2023/09/01 04:28:46;;;;;;;1.60;1.30;;;14.50;99.90;;;;;;2063330;28;20268;-68
2023/09/01 04:29:47;;;;;;;2.13;1.50;;;14.60;99.90;;;;;;2053741;28;20256;-68
2023/09/01 04:30:48;;;;;;;1.23;1.13;;;14.60;99.90;;;;;;2054667;28;20285;-68
2023/09/01 04:31:49;;;;;;;1.20;1.10;;;14.70;99.90;;;;;;2055128;28;20739;-68
2023/09/01 04:32:50;;;;;;;3.00;1.50;;;14.70;99.90;;;;;;2061867;28;20232;-68
2023/09/01 04:33:50;;;;;;;1.87;1.20;;;14.60;99.90;;;;;;2060893;28;20646;-68
2023/09/01 04:34:51;;;;;;;1.67;1.57;;;14.60;99.90;;;;;;2054661;28;20231;-68
2023/09/01 04:36:00;;;;;;;2.42;1.27;;;14.60;99.90;;;;;;2054494;28;20317;-68
2023/09/01 04:37:00;;;;;;;2.03;1.45;;;14.60;99.90;;;;;;2060743;28;20265;-68
2023/09/01 04:38:02;;;;;;;1.90;1.50;;;14.70;99.90;;;;;;2062840;28;20651;-68
2023/09/01 04:39:04;;;;;;;2.53;1.70;;;14.70;99.90;;;;;;2061933;28;20229;-70
2023/09/01 04:40:07;;;;;;;2.08;1.65;;;14.70;99.90;;;;;;2070218;28;20481;-68
2023/09/01 04:41:08;;;;;;;3.03;1.50;;;14.70;99.90;;;;;;2063356;28;20584;-69
2023/09/01 04:42:09;;;;;;;1.50;1.40;;;14.60;99.90;;;;;;2063307;28;20225;-68
2023/09/01 04:43:09;;;;;;;2.07;1.57;;;14.70;99.90;;;;;;2063752;28;20194;-69
2023/09/01 04:44:10;;;;;;;1.57;1.43;;;14.80;99.90;;;;;;2063087;28;20646;-69
2023/09/01 04:45:11;;;;;;;1.88;1.50;;;14.80;99.90;;;;;;2059889;28;20203;-68
2023/09/01 04:46:12;;;;;;;5.03;1.90;;;14.80;99.90;;;;;;2063505;28;20179;-68
2023/09/01 04:47:13;;;;;;;1.40;1.30;;;14.80;99.90;;;;;;2063375;28;20198;-68
2023/09/01 04:48:13;;;;;;;1.70;1.40;;;14.70;99.90;;;;;;2054960;28;20222;-68
2023/09/01 04:49:14;;;;;;;1.27;1.17;;;14.60;99.90;;;;;;2062392;28;20178;-68
2023/09/01 04:50:15;;;;;;;1.60;1.50;;;14.50;99.90;;;;;;2062595;28;20205;-68
2023/09/01 04:51:16;;;;;;;1.40;1.30;;;14.40;99.90;;;;;;2062514;28;20293;-68
2023/09/01 04:52:16;;;;;;;1.77;1.60;;;14.30;99.90;;;;;;2062544;28;20194;-68
2023/09/01 04:53:18;;;;;;;2.03;1.30;;;14.20;99.90;;;;;;2062933;28;20273;-68
2023/09/01 04:54:18;;;;;;;1.30;1.20;;;14.20;99.90;;;;;;2056752;28;20616;-68
2023/09/01 04:55:19;;;;;;;2.00;1.47;;;14.20;99.90;;;;;;2055304;28;20190;-68
2023/09/01 04:56:20;;;;;;;1.60;1.50;;;14.20;99.90;;;;;;2068999;28;20189;-68
2023/09/01 04:57:20;;;;;;;1.70;1.50;;;14.30;99.90;;;;;;2062917;28;20178;-68
2023/09/01 04:58:21;;;;;;;2.40;1.60;;;14.30;99.90;;;;;;2070456;28;20744;-68
2023/09/01 04:59:22;;;;;;;1.57;1.47;;;14.30;99.90;;;;;;2062327;28;20241;-68
2023/09/01 05:00:23;;;;;;;1.53;1.43;;;14.20;99.90;;;;;;2060012;28;20535;-67
2023/09/01 05:01:24;;;;;;;2.10;1.70;;;14.20;99.90;;;;;;2070781;28;20324;-68
2023/09/01 05:02:24;;;;;;;1.47;1.30;;;14.20;99.90;;;;;;2065938;28;20739;-68
2023/09/01 05:03:26;;;;;;;2.57;1.57;;;14.20;99.90;;;;;;2065119;28;20317;-68
2023/09/01 05:04:26;;;;;;;1.93;1.40;;;14.20;99.90;;;;;;2060103;28;20229;-68
2023/09/01 05:05:27;;;;;;;2.80;1.50;;;14.20;99.90;;;;;;2055387;28;20537;-67
2023/09/01 05:06:28;;;;;;;1.40;1.30;;;14.20;99.90;;;;;;2069356;28;20337;-68
2023/09/01 05:07:29;;;;;;;1.63;1.40;;;14.20;99.90;;;;;;2070555;28;20312;-68
2023/09/01 05:08:29;;;;;;;2.30;1.60;;;14.20;99.90;;;;;;2063240;28;20226;-68
2023/09/01 05:09:30;;;;;;;2.90;1.70;;;14.20;99.90;;;;;;2062923;28;20764;-67
2023/09/01 05:10:31;;;;;;;2.03;1.57;;;14.30;99.90;;;;;;2062668;28;20230;-68
2023/09/01 05:11:32;;;;;;;2.87;1.83;;;14.30;99.90;;;;;;2063306;28;20503;-68
2023/09/01 05:12:33;;;;;;;2.73;2.30;;;14.30;99.90;;;;;;2063191;28;20718;-67
2023/09/01 05:13:35;;;;;;;2.65;1.70;;;14.30;99.90;;;;;;2061748;28;20772;-68
2023/09/01 05:14:36;;;;;;;2.23;1.70;;;14.20;99.90;;;;;;2064211;28;20229;-68
2023/09/01 05:15:36;;;;;;;2.93;1.97;;;14.20;99.90;;;;;;2063274;28;20499;-68
2023/09/01 05:16:37;;;;;;;3.80;2.00;;;14.20;99.90;;;;;;2054122;28;20251;-68
2023/09/01 05:17:38;;;;;;;2.83;1.93;;;14.30;99.90;;;;;;2061772;28;20236;-72
2023/09/01 05:18:39;;;;;;;2.27;1.90;;;14.30;99.90;;;;;;2063791;28;20582;-68
2023/09/01 05:19:40;;;;;;;3.03;1.70;;;14.30;99.90;;;;;;2053835;28;20471;-68
2023/09/01 05:20:40;;;;;;;2.60;2.00;;;14.40;99.90;;;;;;2046281;28;20235;-68
2023/09/01 05:21:41;;;;;;;2.60;2.10;;;14.50;99.90;;;;;;2053386;28;20219;-68
2023/09/01 05:22:42;;;;;;;3.33;2.00;;;14.60;99.90;;;;;;2054052;28;20321;-68
2023/09/01 05:23:43;;;;;;;3.20;1.77;;;14.60;99.90;;;;;;2054927;28;20260;-68
2023/09/01 05:24:46;;;;;;;2.73;1.90;;;14.60;99.90;;;;;;2062247;28;20226;-68